sensor_id;sensor_type;location;lat;lon;timestamp;P1;durP1;ratioP1;P2;durP2;ratioP2
16822;SDS011;8528;49.976;11.858;2023-09-07T00:00:16;7.70;;;6.57;;
16822;SDS011;8528;49.976;11.858;2023-09-07T00:02:44;7.17;;;6.47;;
16822;SDS011;8528;49.976;11.858;2023-09-07T00:05:11;7.47;;;6.77;;
16822;SDS011;8528;49.976;11.858;2023-09-07T00:07:39;7.00;;;6.30;;
16822;SDS011;8528;49.976;11.858;2023-09-07T00:10:07;8.63;;;6.87;;
16822;SDS011;8528;49.976;11.858;2023-09-07T00:12:35;7.93;;;6.37;;
16822;SDS011;8528;49.976;11.858;2023-09-07T00:15:06;6.93;;;6.23;;
16822;SDS011;8528;49.976;11.858;2023-09-07T00:17:33;9.93;;;6.27;;
16822;SDS011;8528;49.976;11.858;2023-09-07T00:20:00;7.20;;;6.50;;
16822;SDS011;8528;49.976;11.858;2023-09-07T00:22:30;7.17;;;6.17;;
16822;SDS011;8528;49.976;11.858;2023-09-07T00:24:57;7.10;;;6.40;;
16822;SDS011;8528;49.976;11.858;2023-09-07T00:27:24;8.30;;;6.90;;
16822;SDS011;8528;49.976;11.858;2023-09-07T00:29:51;6.70;;;6.00;;
16822;SDS011;8528;49.976;11.858;2023-09-07T00:32:18;6.93;;;6.23;;
16822;SDS011;8528;49.976;11.858;2023-09-07T00:34:45;7.17;;;6.47;;
16822;SDS011;8528;49.976;11.858;2023-09-07T00:37:13;7.70;;;6.83;;
16822;SDS011;8528;49.976;11.858;2023-09-07T00:39:39;7.20;;;6.47;;
16822;SDS011;8528;49.976;11.858;2023-09-07T00:42:07;7.20;;;6.47;;
16822;SDS011;8528;49.976;11.858;2023-09-07T00:44:33;8.53;;;7.07;;
16822;SDS011;8528;49.976;11.858;2023-09-07T00:47:00;7.47;;;6.73;;
16822;SDS011;8528;49.976;11.858;2023-09-07T00:49:28;7.30;;;6.60;;
16822;SDS011;8528;49.976;11.858;2023-09-07T00:51:55;7.03;;;6.33;;
16822;SDS011;8528;49.976;11.858;2023-09-07T00:54:22;8.03;;;7.03;;
16822;SDS011;8528;49.976;11.858;2023-09-07T00:56:48;6.87;;;6.20;;
16822;SDS011;8528;49.976;11.858;2023-09-07T00:59:15;7.03;;;6.40;;
16822;SDS011;8528;49.976;11.858;2023-09-07T01:01:42;7.60;;;6.77;;
16822;SDS011;8528;49.976;11.858;2023-09-07T01:04:09;6.80;;;6.20;;
16822;SDS011;8528;49.976;11.858;2023-09-07T01:06:43;7.17;;;6.20;;
16822;SDS011;8528;49.976;11.858;2023-09-07T01:09:19;6.83;;;6.20;;
16822;SDS011;8528;49.976;11.858;2023-09-07T01:11:49;6.40;;;5.73;;
16822;SDS011;8528;49.976;11.858;2023-09-07T01:14:17;9.00;;;6.30;;
16822;SDS011;8528;49.976;11.858;2023-09-07T01:16:44;7.77;;;6.23;;
16822;SDS011;8528;49.976;11.858;2023-09-07T01:19:11;6.40;;;5.80;;
16822;SDS011;8528;49.976;11.858;2023-09-07T01:21:38;7.00;;;6.00;;
16822;SDS011;8528;49.976;11.858;2023-09-07T01:24:09;6.73;;;6.03;;
16822;SDS011;8528;49.976;11.858;2023-09-07T01:26:37;6.97;;;6.27;;
16822;SDS011;8528;49.976;11.858;2023-09-07T01:29:05;8.60;;;6.37;;
16822;SDS011;8528;49.976;11.858;2023-09-07T01:31:36;7.90;;;6.73;;
16822;SDS011;8528;49.976;11.858;2023-09-07T01:34:05;7.07;;;6.00;;
16822;SDS011;8528;49.976;11.858;2023-09-07T01:36:32;7.50;;;6.37;;
16822;SDS011;8528;49.976;11.858;2023-09-07T01:39:00;8.47;;;7.57;;
16822;SDS011;8528;49.976;11.858;2023-09-07T01:41:27;8.13;;;7.33;;
16822;SDS011;8528;49.976;11.858;2023-09-07T01:43:55;7.63;;;6.83;;
16822;SDS011;8528;49.976;11.858;2023-09-07T01:46:22;8.33;;;6.57;;
16822;SDS011;8528;49.976;11.858;2023-09-07T01:48:49;8.70;;;6.10;;
16822;SDS011;8528;49.976;11.858;2023-09-07T01:51:16;7.03;;;6.33;;
16822;SDS011;8528;49.976;11.858;2023-09-07T01:53:43;8.33;;;6.87;;
16822;SDS011;8528;49.976;11.858;2023-09-07T01:56:09;7.83;;;6.80;;
16822;SDS011;8528;49.976;11.858;2023-09-07T01:58:37;8.70;;;7.13;;
16822;SDS011;8528;49.976;11.858;2023-09-07T02:01:03;11.90;;;7.20;;
16822;SDS011;8528;49.976;11.858;2023-09-07T02:03:30;10.27;;;7.40;;
16822;SDS011;8528;49.976;11.858;2023-09-07T02:05:57;8.80;;;6.97;;
16822;SDS011;8528;49.976;11.858;2023-09-07T02:08:24;8.87;;;7.37;;
16822;SDS011;8528;49.976;11.858;2023-09-07T02:10:51;8.00;;;6.83;;
16822;SDS011;8528;49.976;11.858;2023-09-07T02:13:18;9.70;;;7.53;;
16822;SDS011;8528;49.976;11.858;2023-09-07T02:15:44;10.53;;;7.23;;
16822;SDS011;8528;49.976;11.858;2023-09-07T02:18:11;12.27;;;8.03;;
16822;SDS011;8528;49.976;11.858;2023-09-07T02:20:38;7.40;;;6.63;;
16822;SDS011;8528;49.976;11.858;2023-09-07T02:23:05;7.77;;;6.93;;
16822;SDS011;8528;49.976;11.858;2023-09-07T02:25:32;7.27;;;6.43;;
16822;SDS011;8528;49.976;11.858;2023-09-07T02:28:00;8.53;;;7.10;;
16822;SDS011;8528;49.976;11.858;2023-09-07T02:30:27;7.03;;;6.33;;
16822;SDS011;8528;49.976;11.858;2023-09-07T02:32:54;8.70;;;6.73;;
16822;SDS011;8528;49.976;11.858;2023-09-07T02:35:21;8.47;;;6.67;;
16822;SDS011;8528;49.976;11.858;2023-09-07T02:37:48;7.80;;;7.00;;
16822;SDS011;8528;49.976;11.858;2023-09-07T02:40:15;6.97;;;6.20;;
16822;SDS011;8528;49.976;11.858;2023-09-07T02:42:42;8.20;;;6.87;;
16822;SDS011;8528;49.976;11.858;2023-09-07T02:45:12;10.53;;;7.03;;
16822;SDS011;8528;49.976;11.858;2023-09-07T02:47:40;9.03;;;8.13;;
16822;SDS011;8528;49.976;11.858;2023-09-07T02:50:07;9.40;;;7.23;;
16822;SDS011;8528;49.976;11.858;2023-09-07T02:52:35;8.30;;;7.37;;
16822;SDS011;8528;49.976;11.858;2023-09-07T02:55:01;7.90;;;7.10;;
16822;SDS011;8528;49.976;11.858;2023-09-07T02:57:30;8.07;;;6.70;;
16822;SDS011;8528;49.976;11.858;2023-09-07T02:59:57;8.73;;;6.33;;
16822;SDS011;8528;49.976;11.858;2023-09-07T03:02:24;6.50;;;5.80;;
16822;SDS011;8528;49.976;11.858;2023-09-07T03:04:54;8.07;;;6.63;;
16822;SDS011;8528;49.976;11.858;2023-09-07T03:07:24;8.23;;;6.37;;
16822;SDS011;8528;49.976;11.858;2023-09-07T03:09:54;8.57;;;6.47;;
16822;SDS011;8528;49.976;11.858;2023-09-07T03:12:20;7.27;;;6.50;;
16822;SDS011;8528;49.976;11.858;2023-09-07T03:14:47;6.67;;;6.07;;
16822;SDS011;8528;49.976;11.858;2023-09-07T03:17:16;6.73;;;5.70;;
16822;SDS011;8528;49.976;11.858;2023-09-07T03:19:44;7.57;;;6.73;;
16822;SDS011;8528;49.976;11.858;2023-09-07T03:22:10;8.50;;;6.33;;
16822;SDS011;8528;49.976;11.858;2023-09-07T03:24:37;7.17;;;6.43;;
16822;SDS011;8528;49.976;11.858;2023-09-07T03:27:05;7.40;;;6.57;;
16822;SDS011;8528;49.976;11.858;2023-09-07T03:29:32;8.57;;;6.30;;
16822;SDS011;8528;49.976;11.858;2023-09-07T03:31:59;7.40;;;6.27;;
16822;SDS011;8528;49.976;11.858;2023-09-07T03:34:26;7.20;;;6.23;;
16822;SDS011;8528;49.976;11.858;2023-09-07T03:36:53;8.03;;;6.80;;
16822;SDS011;8528;49.976;11.858;2023-09-07T03:39:20;6.50;;;5.90;;
16822;SDS011;8528;49.976;11.858;2023-09-07T03:41:48;12.17;;;7.17;;
16822;SDS011;8528;49.976;11.858;2023-09-07T03:44:15;7.90;;;6.60;;
16822;SDS011;8528;49.976;11.858;2023-09-07T03:46:42;8.10;;;6.70;;
16822;SDS011;8528;49.976;11.858;2023-09-07T03:49:09;6.93;;;6.33;;
16822;SDS011;8528;49.976;11.858;2023-09-07T03:51:36;8.43;;;6.60;;
16822;SDS011;8528;49.976;11.858;2023-09-07T03:54:03;8.83;;;7.20;;
16822;SDS011;8528;49.976;11.858;2023-09-07T03:56:30;9.80;;;7.27;;
16822;SDS011;8528;49.976;11.858;2023-09-07T03:58:57;6.97;;;6.37;;
16822;SDS011;8528;49.976;11.858;2023-09-07T04:01:24;7.60;;;6.83;;
16822;SDS011;8528;49.976;11.858;2023-09-07T04:03:52;7.90;;;6.90;;
16822;SDS011;8528;49.976;11.858;2023-09-07T04:06:19;7.93;;;6.37;;
16822;SDS011;8528;49.976;11.858;2023-09-07T04:08:46;7.63;;;6.63;;
16822;SDS011;8528;49.976;11.858;2023-09-07T04:11:13;8.97;;;7.17;;
16822;SDS011;8528;49.976;11.858;2023-09-07T04:13:40;9.10;;;7.67;;
16822;SDS011;8528;49.976;11.858;2023-09-07T04:16:08;7.80;;;7.10;;
16822;SDS011;8528;49.976;11.858;2023-09-07T04:18:36;9.37;;;7.30;;
16822;SDS011;8528;49.976;11.858;2023-09-07T04:21:06;9.40;;;6.70;;
16822;SDS011;8528;49.976;11.858;2023-09-07T04:23:34;11.27;;;7.63;;
16822;SDS011;8528;49.976;11.858;2023-09-07T04:26:07;9.20;;;7.60;;
16822;SDS011;8528;49.976;11.858;2023-09-07T04:28:36;8.77;;;7.13;;
16822;SDS011;8528;49.976;11.858;2023-09-07T04:31:04;9.70;;;7.20;;
16822;SDS011;8528;49.976;11.858;2023-09-07T04:33:32;9.07;;;6.93;;
16822;SDS011;8528;49.976;11.858;2023-09-07T04:38:40;6.80;;;6.07;;
16822;SDS011;8528;49.976;11.858;2023-09-07T04:41:12;9.73;;;7.30;;
16822;SDS011;8528;49.976;11.858;2023-09-07T04:43:40;7.70;;;6.90;;
16822;SDS011;8528;49.976;11.858;2023-09-07T04:46:11;7.40;;;6.77;;
16822;SDS011;8528;49.976;11.858;2023-09-07T04:48:39;7.70;;;6.90;;
16822;SDS011;8528;49.976;11.858;2023-09-07T04:51:10;9.77;;;7.20;;
16822;SDS011;8528;49.976;11.858;2023-09-07T04:53:39;8.07;;;7.27;;
16822;SDS011;8528;49.976;11.858;2023-09-07T04:56:06;8.97;;;7.93;;
16822;SDS011;8528;49.976;11.858;2023-09-07T04:58:37;8.00;;;7.10;;
16822;SDS011;8528;49.976;11.858;2023-09-07T05:01:04;12.77;;;7.27;;
16822;SDS011;8528;49.976;11.858;2023-09-07T05:03:32;9.03;;;6.70;;
16822;SDS011;8528;49.976;11.858;2023-09-07T05:06:00;8.47;;;6.40;;
16822;SDS011;8528;49.976;11.858;2023-09-07T05:08:27;9.60;;;6.97;;
16822;SDS011;8528;49.976;11.858;2023-09-07T05:10:58;8.07;;;7.27;;
16822;SDS011;8528;49.976;11.858;2023-09-07T05:13:26;8.50;;;7.60;;
16822;SDS011;8528;49.976;11.858;2023-09-07T05:15:53;7.83;;;7.07;;
16822;SDS011;8528;49.976;11.858;2023-09-07T05:18:21;10.03;;;6.30;;
16822;SDS011;8528;49.976;11.858;2023-09-07T05:20:49;11.10;;;6.27;;
16822;SDS011;8528;49.976;11.858;2023-09-07T05:23:18;9.93;;;5.67;;
16822;SDS011;8528;49.976;11.858;2023-09-07T05:25:47;5.73;;;5.13;;
16822;SDS011;8528;49.976;11.858;2023-09-07T05:28:15;8.07;;;4.97;;
16822;SDS011;8528;49.976;11.858;2023-09-07T05:30:42;4.37;;;4.00;;
16822;SDS011;8528;49.976;11.858;2023-09-07T05:33:10;4.20;;;3.80;;
16822;SDS011;8528;49.976;11.858;2023-09-07T05:35:39;7.60;;;4.40;;
16822;SDS011;8528;49.976;11.858;2023-09-07T05:38:06;4.90;;;4.50;;
16822;SDS011;8528;49.976;11.858;2023-09-07T05:40:33;4.83;;;4.33;;
16822;SDS011;8528;49.976;11.858;2023-09-07T05:43:04;5.30;;;4.67;;
16822;SDS011;8528;49.976;11.858;2023-09-07T05:45:36;5.53;;;4.67;;
16822;SDS011;8528;49.976;11.858;2023-09-07T05:48:06;4.50;;;3.93;;
16822;SDS011;8528;49.976;11.858;2023-09-07T05:50:35;4.87;;;3.97;;
16822;SDS011;8528;49.976;11.858;2023-09-07T05:53:03;3.93;;;3.57;;
16822;SDS011;8528;49.976;11.858;2023-09-07T05:55:30;4.80;;;3.40;;
16822;SDS011;8528;49.976;11.858;2023-09-07T05:57:57;5.07;;;4.25;;
16822;SDS011;8528;49.976;11.858;2023-09-07T06:00:24;3.92;;;3.35;;
16822;SDS011;8528;49.976;11.858;2023-09-07T06:02:52;6.10;;;3.60;;
16822;SDS011;8528;49.976;11.858;2023-09-07T06:05:19;3.75;;;3.38;;
16822;SDS011;8528;49.976;11.858;2023-09-07T06:07:46;8.18;;;3.95;;
16822;SDS011;8528;49.976;11.858;2023-09-07T06:10:13;12.35;;;6.53;;
16822;SDS011;8528;49.976;11.858;2023-09-07T06:15:29;7.07;;;4.85;;
16822;SDS011;8528;49.976;11.858;2023-09-07T06:17:57;4.63;;;4.00;;
16822;SDS011;8528;49.976;11.858;2023-09-07T06:20:24;5.40;;;4.47;;
16822;SDS011;8528;49.976;11.858;2023-09-07T06:22:52;7.30;;;4.60;;
16822;SDS011;8528;49.976;11.858;2023-09-07T06:25:19;5.70;;;3.90;;
16822;SDS011;8528;49.976;11.858;2023-09-07T06:27:46;4.22;;;3.40;;
16822;SDS011;8528;49.976;11.858;2023-09-07T06:30:13;4.45;;;3.50;;
16822;SDS011;8528;49.976;11.858;2023-09-07T06:32:40;3.45;;;3.15;;
16822;SDS011;8528;49.976;11.858;2023-09-07T06:35:08;4.95;;;3.05;;
16822;SDS011;8528;49.976;11.858;2023-09-07T06:37:36;3.53;;;3.20;;
16822;SDS011;8528;49.976;11.858;2023-09-07T06:40:07;5.60;;;3.17;;
16822;SDS011;8528;49.976;11.858;2023-09-07T06:42:35;3.75;;;2.78;;
16822;SDS011;8528;49.976;11.858;2023-09-07T06:45:02;4.18;;;2.83;;
16822;SDS011;8528;49.976;11.858;2023-09-07T06:47:29;4.75;;;2.92;;
16822;SDS011;8528;49.976;11.858;2023-09-07T06:49:56;3.25;;;2.95;;
16822;SDS011;8528;49.976;11.858;2023-09-07T06:52:23;3.13;;;2.78;;
16822;SDS011;8528;49.976;11.858;2023-09-07T06:54:52;2.92;;;2.63;;
16822;SDS011;8528;49.976;11.858;2023-09-07T06:57:19;3.45;;;2.78;;
16822;SDS011;8528;49.976;11.858;2023-09-07T06:59:47;3.50;;;3.20;;
16822;SDS011;8528;49.976;11.858;2023-09-07T07:02:14;5.15;;;2.70;;
16822;SDS011;8528;49.976;11.858;2023-09-07T07:04:41;2.65;;;2.45;;
16822;SDS011;8528;49.976;11.858;2023-09-07T07:07:10;4.60;;;2.90;;
16822;SDS011;8528;49.976;11.858;2023-09-07T07:09:37;3.97;;;2.90;;
16822;SDS011;8528;49.976;11.858;2023-09-07T07:12:04;2.75;;;2.55;;
16822;SDS011;8528;49.976;11.858;2023-09-07T07:14:31;5.85;;;3.00;;
16822;SDS011;8528;49.976;11.858;2023-09-07T07:16:58;3.10;;;2.88;;
16822;SDS011;8528;49.976;11.858;2023-09-07T07:19:25;2.85;;;2.53;;
16822;SDS011;8528;49.976;11.858;2023-09-07T07:22:01;4.25;;;2.97;;
16822;SDS011;8528;49.976;11.858;2023-09-07T07:24:29;4.10;;;3.08;;
16822;SDS011;8528;49.976;11.858;2023-09-07T07:26:56;3.53;;;2.70;;
16822;SDS011;8528;49.976;11.858;2023-09-07T07:29:22;4.30;;;3.00;;
16822;SDS011;8528;49.976;11.858;2023-09-07T07:31:49;3.58;;;2.90;;
16822;SDS011;8528;49.976;11.858;2023-09-07T07:34:16;3.05;;;2.70;;
16822;SDS011;8528;49.976;11.858;2023-09-07T07:36:43;3.33;;;2.88;;
16822;SDS011;8528;49.976;11.858;2023-09-07T07:39:10;4.78;;;2.80;;
16822;SDS011;8528;49.976;11.858;2023-09-07T07:41:37;4.05;;;3.25;;
16822;SDS011;8528;49.976;11.858;2023-09-07T07:44:07;3.75;;;2.90;;
16822;SDS011;8528;49.976;11.858;2023-09-07T07:46:35;4.90;;;3.20;;
16822;SDS011;8528;49.976;11.858;2023-09-07T07:49:02;3.08;;;2.83;;
16822;SDS011;8528;49.976;11.858;2023-09-07T07:51:29;3.60;;;3.15;;
16822;SDS011;8528;49.976;11.858;2023-09-07T07:53:56;3.10;;;2.83;;
16822;SDS011;8528;49.976;11.858;2023-09-07T07:56:23;3.78;;;2.92;;
16822;SDS011;8528;49.976;11.858;2023-09-07T07:58:50;2.95;;;2.75;;
16822;SDS011;8528;49.976;11.858;2023-09-07T08:01:17;3.65;;;2.83;;
16822;SDS011;8528;49.976;11.858;2023-09-07T08:03:47;2.95;;;2.75;;
16822;SDS011;8528;49.976;11.858;2023-09-07T08:06:14;4.20;;;2.90;;
16822;SDS011;8528;49.976;11.858;2023-09-07T08:08:41;3.72;;;2.95;;
16822;SDS011;8528;49.976;11.858;2023-09-07T08:11:08;5.38;;;3.63;;
16822;SDS011;8528;49.976;11.858;2023-09-07T08:13:35;3.35;;;2.90;;
16822;SDS011;8528;49.976;11.858;2023-09-07T08:16:02;3.72;;;2.92;;
16822;SDS011;8528;49.976;11.858;2023-09-07T08:18:29;4.97;;;3.03;;
16822;SDS011;8528;49.976;11.858;2023-09-07T08:20:59;3.08;;;2.78;;
16822;SDS011;8528;49.976;11.858;2023-09-07T08:23:26;3.22;;;2.88;;
16822;SDS011;8528;49.976;11.858;2023-09-07T08:25:53;3.70;;;3.10;;
16822;SDS011;8528;49.976;11.858;2023-09-07T08:28:20;4.07;;;3.03;;
16822;SDS011;8528;49.976;11.858;2023-09-07T08:30:49;3.13;;;2.83;;
16822;SDS011;8528;49.976;11.858;2023-09-07T08:33:23;3.33;;;2.90;;
16822;SDS011;8528;49.976;11.858;2023-09-07T08:35:56;3.15;;;2.90;;
16822;SDS011;8528;49.976;11.858;2023-09-07T08:38:23;4.45;;;3.05;;
16822;SDS011;8528;49.976;11.858;2023-09-07T08:40:55;3.78;;;2.75;;
16822;SDS011;8528;49.976;11.858;2023-09-07T08:43:26;4.85;;;2.72;;
16822;SDS011;8528;49.976;11.858;2023-09-07T08:45:55;3.00;;;2.80;;
16822;SDS011;8528;49.976;11.858;2023-09-07T08:48:30;2.80;;;2.60;;
16822;SDS011;8528;49.976;11.858;2023-09-07T08:50:59;3.38;;;3.08;;
16822;SDS011;8528;49.976;11.858;2023-09-07T08:53:27;3.08;;;2.72;;
16822;SDS011;8528;49.976;11.858;2023-09-07T08:55:56;3.65;;;2.83;;
16822;SDS011;8528;49.976;11.858;2023-09-07T08:58:23;3.60;;;2.80;;
16822;SDS011;8528;49.976;11.858;2023-09-07T09:00:50;3.10;;;2.80;;
16822;SDS011;8528;49.976;11.858;2023-09-07T09:03:18;4.25;;;2.80;;
16822;SDS011;8528;49.976;11.858;2023-09-07T09:05:45;3.10;;;2.50;;
16822;SDS011;8528;49.976;11.858;2023-09-07T09:08:15;2.72;;;2.53;;
16822;SDS011;8528;49.976;11.858;2023-09-07T09:10:46;4.30;;;2.90;;
16822;SDS011;8528;49.976;11.858;2023-09-07T09:13:13;2.78;;;2.55;;
16822;SDS011;8528;49.976;11.858;2023-09-07T09:15:41;3.45;;;2.38;;
16822;SDS011;8528;49.976;11.858;2023-09-07T09:18:09;2.92;;;2.58;;
16822;SDS011;8528;49.976;11.858;2023-09-07T09:20:38;3.47;;;2.88;;
16822;SDS011;8528;49.976;11.858;2023-09-07T09:23:05;3.22;;;2.58;;
16822;SDS011;8528;49.976;11.858;2023-09-07T09:25:34;2.95;;;2.70;;
16822;SDS011;8528;49.976;11.858;2023-09-07T09:28:00;2.50;;;2.30;;
16822;SDS011;8528;49.976;11.858;2023-09-07T09:30:28;3.50;;;3.00;;
16822;SDS011;8528;49.976;11.858;2023-09-07T09:32:55;2.80;;;2.60;;
16822;SDS011;8528;49.976;11.858;2023-09-07T09:35:24;4.35;;;2.42;;
16822;SDS011;8528;49.976;11.858;2023-09-07T09:37:53;2.60;;;2.40;;
16822;SDS011;8528;49.976;11.858;2023-09-07T09:40:20;3.08;;;2.78;;
16822;SDS011;8528;49.976;11.858;2023-09-07T09:42:47;3.53;;;2.53;;
16822;SDS011;8528;49.976;11.858;2023-09-07T09:45:17;4.70;;;2.35;;
16822;SDS011;8528;49.976;11.858;2023-09-07T09:47:46;3.05;;;2.72;;
16822;SDS011;8528;49.976;11.858;2023-09-07T09:50:16;2.83;;;2.45;;
16822;SDS011;8528;49.976;11.858;2023-09-07T09:52:45;3.25;;;2.33;;
16822;SDS011;8528;49.976;11.858;2023-09-07T09:55:13;2.70;;;2.50;;
16822;SDS011;8528;49.976;11.858;2023-09-07T09:57:41;3.00;;;2.42;;
16822;SDS011;8528;49.976;11.858;2023-09-07T10:00:09;2.97;;;2.67;;
16822;SDS011;8528;49.976;11.858;2023-09-07T10:02:47;2.80;;;2.60;;
16822;SDS011;8528;49.976;11.858;2023-09-07T10:05:18;3.28;;;2.65;;
16822;SDS011;8528;49.976;11.858;2023-09-07T10:07:49;2.53;;;2.33;;
16822;SDS011;8528;49.976;11.858;2023-09-07T10:10:19;2.72;;;2.53;;
16822;SDS011;8528;49.976;11.858;2023-09-07T10:12:52;2.90;;;2.60;;
16822;SDS011;8528;49.976;11.858;2023-09-07T10:15:26;2.65;;;2.45;;
16822;SDS011;8528;49.976;11.858;2023-09-07T10:18:04;2.95;;;2.58;;
16822;SDS011;8528;49.976;11.858;2023-09-07T10:20:55;3.00;;;2.70;;
16822;SDS011;8528;49.976;11.858;2023-09-07T10:23:41;3.53;;;2.50;;
16822;SDS011;8528;49.976;11.858;2023-09-07T10:28:40;4.38;;;2.63;;
16822;SDS011;8528;49.976;11.858;2023-09-07T10:31:17;5.00;;;2.65;;
16822;SDS011;8528;49.976;11.858;2023-09-07T10:33:46;4.15;;;2.60;;
16822;SDS011;8528;49.976;11.858;2023-09-07T10:36:25;2.47;;;2.28;;
16822;SDS011;8528;49.976;11.858;2023-09-07T10:38:54;3.45;;;2.50;;
16822;SDS011;8528;49.976;11.858;2023-09-07T10:41:22;3.67;;;2.45;;
16822;SDS011;8528;49.976;11.858;2023-09-07T10:43:55;4.07;;;2.90;;
16822;SDS011;8528;49.976;11.858;2023-09-07T10:46:23;2.50;;;2.30;;
16822;SDS011;8528;49.976;11.858;2023-09-07T10:48:51;2.90;;;2.28;;
16822;SDS011;8528;49.976;11.858;2023-09-07T10:51:19;3.53;;;2.70;;
16822;SDS011;8528;49.976;11.858;2023-09-07T10:53:46;3.17;;;2.22;;
16822;SDS011;8528;49.976;11.858;2023-09-07T10:56:13;3.15;;;2.72;;
16822;SDS011;8528;49.976;11.858;2023-09-07T10:58:41;2.72;;;2.53;;
16822;SDS011;8528;49.976;11.858;2023-09-07T11:01:09;2.30;;;2.10;;
16822;SDS011;8528;49.976;11.858;2023-09-07T11:03:41;2.92;;;2.63;;
16822;SDS011;8528;49.976;11.858;2023-09-07T11:08:44;2.67;;;2.47;;
16822;SDS011;8528;49.976;11.858;2023-09-07T11:11:14;2.83;;;2.50;;
16822;SDS011;8528;49.976;11.858;2023-09-07T11:13:42;2.85;;;2.58;;
16822;SDS011;8528;49.976;11.858;2023-09-07T11:16:09;3.20;;;2.60;;
16822;SDS011;8528;49.976;11.858;2023-09-07T11:18:36;2.97;;;2.70;;
16822;SDS011;8528;49.976;11.858;2023-09-07T11:21:03;2.45;;;2.25;;
16822;SDS011;8528;49.976;11.858;2023-09-07T11:23:31;3.30;;;2.60;;
16822;SDS011;8528;49.976;11.858;2023-09-07T11:26:05;2.75;;;2.53;;
16822;SDS011;8528;49.976;11.858;2023-09-07T11:28:32;3.10;;;2.40;;
16822;SDS011;8528;49.976;11.858;2023-09-07T11:30:59;2.85;;;2.55;;
16822;SDS011;8528;49.976;11.858;2023-09-07T11:33:26;2.63;;;2.42;;
16822;SDS011;8528;49.976;11.858;2023-09-07T11:35:58;3.38;;;2.75;;
16822;SDS011;8528;49.976;11.858;2023-09-07T11:38:29;2.63;;;2.42;;
16822;SDS011;8528;49.976;11.858;2023-09-07T11:41:01;3.00;;;2.45;;
16822;SDS011;8528;49.976;11.858;2023-09-07T11:43:29;2.95;;;2.45;;
16822;SDS011;8528;49.976;11.858;2023-09-07T11:45:57;3.05;;;2.10;;
16822;SDS011;8528;49.976;11.858;2023-09-07T11:48:24;2.97;;;2.78;;
16822;SDS011;8528;49.976;11.858;2023-09-07T11:50:51;2.70;;;2.15;;
16822;SDS011;8528;49.976;11.858;2023-09-07T11:53:18;3.00;;;2.80;;
16822;SDS011;8528;49.976;11.858;2023-09-07T11:55:45;2.70;;;2.40;;
16822;SDS011;8528;49.976;11.858;2023-09-07T11:58:12;2.85;;;2.53;;
16822;SDS011;8528;49.976;11.858;2023-09-07T12:00:39;2.88;;;2.60;;
16822;SDS011;8528;49.976;11.858;2023-09-07T12:03:08;2.92;;;2.38;;
16822;SDS011;8528;49.976;11.858;2023-09-07T12:05:35;2.65;;;2.45;;
16822;SDS011;8528;49.976;11.858;2023-09-07T12:08:04;3.72;;;3.00;;
16822;SDS011;8528;49.976;11.858;2023-09-07T12:10:32;3.35;;;2.65;;
16822;SDS011;8528;49.976;11.858;2023-09-07T12:13:21;2.95;;;2.65;;
16822;SDS011;8528;49.976;11.858;2023-09-07T12:15:47;3.08;;;2.78;;
16822;SDS011;8528;49.976;11.858;2023-09-07T12:18:15;2.92;;;2.72;;
16822;SDS011;8528;49.976;11.858;2023-09-07T12:20:42;3.17;;;2.60;;
16822;SDS011;8528;49.976;11.858;2023-09-07T12:23:11;4.93;;;3.05;;
16822;SDS011;8528;49.976;11.858;2023-09-07T12:25:38;3.70;;;2.92;;
16822;SDS011;8528;49.976;11.858;2023-09-07T12:28:04;3.08;;;2.88;;
16822;SDS011;8528;49.976;11.858;2023-09-07T12:30:31;3.53;;;2.83;;
16822;SDS011;8528;49.976;11.858;2023-09-07T12:32:58;3.92;;;2.80;;
16822;SDS011;8528;49.976;11.858;2023-09-07T12:35:25;2.92;;;2.42;;
16822;SDS011;8528;49.976;11.858;2023-09-07T12:37:52;3.47;;;2.83;;
16822;SDS011;8528;49.976;11.858;2023-09-07T12:40:19;2.80;;;2.60;;
16822;SDS011;8528;49.976;11.858;2023-09-07T12:42:46;3.33;;;2.78;;
16822;SDS011;8528;49.976;11.858;2023-09-07T12:45:13;3.10;;;2.58;;
16822;SDS011;8528;49.976;11.858;2023-09-07T12:47:41;3.47;;;2.70;;
16822;SDS011;8528;49.976;11.858;2023-09-07T12:50:09;2.83;;;2.63;;
16822;SDS011;8528;49.976;11.858;2023-09-07T12:52:36;2.55;;;2.35;;
16822;SDS011;8528;49.976;11.858;2023-09-07T12:55:04;3.20;;;2.90;;
16822;SDS011;8528;49.976;11.858;2023-09-07T12:57:32;3.15;;;2.92;;
16822;SDS011;8528;49.976;11.858;2023-09-07T13:00:01;3.25;;;2.58;;
16822;SDS011;8528;49.976;11.858;2023-09-07T13:02:30;3.30;;;3.00;;
16822;SDS011;8528;49.976;11.858;2023-09-07T13:04:56;2.88;;;2.67;;
16822;SDS011;8528;49.976;11.858;2023-09-07T13:07:44;3.83;;;2.88;;
16822;SDS011;8528;49.976;11.858;2023-09-07T13:10:11;4.15;;;2.70;;
16822;SDS011;8528;49.976;11.858;2023-09-07T13:12:38;4.75;;;2.75;;
16822;SDS011;8528;49.976;11.858;2023-09-07T13:15:06;3.67;;;2.88;;
16822;SDS011;8528;49.976;11.858;2023-09-07T13:17:33;3.92;;;2.80;;
16822;SDS011;8528;49.976;11.858;2023-09-07T13:20:00;5.22;;;3.00;;
16822;SDS011;8528;49.976;11.858;2023-09-07T13:22:27;4.55;;;3.40;;
16822;SDS011;8528;49.976;11.858;2023-09-07T13:24:54;3.17;;;2.88;;
16822;SDS011;8528;49.976;11.858;2023-09-07T13:27:21;3.38;;;3.08;;
16822;SDS011;8528;49.976;11.858;2023-09-07T13:29:50;3.88;;;2.70;;
16822;SDS011;8528;49.976;11.858;2023-09-07T13:32:17;4.30;;;2.88;;
16822;SDS011;8528;49.976;11.858;2023-09-07T13:34:44;3.58;;;2.80;;
16822;SDS011;8528;49.976;11.858;2023-09-07T13:37:11;3.15;;;2.85;;
16822;SDS011;8528;49.976;11.858;2023-09-07T13:39:39;3.15;;;2.85;;
16822;SDS011;8528;49.976;11.858;2023-09-07T13:42:05;3.20;;;2.90;;
16822;SDS011;8528;49.976;11.858;2023-09-07T13:44:32;3.42;;;2.97;;
16822;SDS011;8528;49.976;11.858;2023-09-07T13:47:00;4.28;;;2.97;;
16822;SDS011;8528;49.976;11.858;2023-09-07T13:49:27;4.63;;;3.17;;
16822;SDS011;8528;49.976;11.858;2023-09-07T13:51:54;3.08;;;2.78;;
16822;SDS011;8528;49.976;11.858;2023-09-07T13:54:21;4.05;;;3.40;;
16822;SDS011;8528;49.976;11.858;2023-09-07T13:56:48;3.60;;;3.30;;
16822;SDS011;8528;49.976;11.858;2023-09-07T13:59:15;5.10;;;3.38;;
16822;SDS011;8528;49.976;11.858;2023-09-07T14:01:42;4.82;;;3.22;;
16822;SDS011;8528;49.976;11.858;2023-09-07T14:04:09;4.10;;;2.95;;
16822;SDS011;8528;49.976;11.858;2023-09-07T14:06:36;3.65;;;3.08;;
16822;SDS011;8528;49.976;11.858;2023-09-07T14:09:03;3.78;;;3.30;;
16822;SDS011;8528;49.976;11.858;2023-09-07T14:11:32;3.65;;;3.15;;
16822;SDS011;8528;49.976;11.858;2023-09-07T14:14:00;4.97;;;3.40;;
16822;SDS011;8528;49.976;11.858;2023-09-07T14:16:27;3.60;;;3.03;;
16822;SDS011;8528;49.976;11.858;2023-09-07T14:18:54;10.32;;;3.72;;
16822;SDS011;8528;49.976;11.858;2023-09-07T14:21:21;7.00;;;3.75;;
16822;SDS011;8528;49.976;11.858;2023-09-07T14:23:47;4.05;;;3.55;;
16822;SDS011;8528;49.976;11.858;2023-09-07T14:26:15;7.88;;;3.28;;
16822;SDS011;8528;49.976;11.858;2023-09-07T14:28:42;4.63;;;2.92;;
16822;SDS011;8528;49.976;11.858;2023-09-07T14:31:09;3.80;;;3.08;;
16822;SDS011;8528;49.976;11.858;2023-09-07T14:33:37;3.30;;;3.00;;
16822;SDS011;8528;49.976;11.858;2023-09-07T14:36:09;6.45;;;3.25;;
16822;SDS011;8528;49.976;11.858;2023-09-07T14:38:36;2.95;;;2.75;;
16822;SDS011;8528;49.976;11.858;2023-09-07T14:41:08;3.67;;;3.25;;
16822;SDS011;8528;49.976;11.858;2023-09-07T14:43:45;3.63;;;3.33;;
16822;SDS011;8528;49.976;11.858;2023-09-07T14:46:13;4.88;;;3.00;;
16822;SDS011;8528;49.976;11.858;2023-09-07T14:48:41;3.83;;;3.17;;
16822;SDS011;8528;49.976;11.858;2023-09-07T14:51:09;4.33;;;3.00;;
16822;SDS011;8528;49.976;11.858;2023-09-07T14:53:36;3.50;;;3.20;;
16822;SDS011;8528;49.976;11.858;2023-09-07T14:56:03;3.47;;;3.10;;
16822;SDS011;8528;49.976;11.858;2023-09-07T14:58:30;6.50;;;3.20;;
16822;SDS011;8528;49.976;11.858;2023-09-07T15:00:57;3.80;;;3.40;;
16822;SDS011;8528;49.976;11.858;2023-09-07T15:03:25;3.23;;;3.00;;